• Join FlightAware (Why Join?)
  • Login
  • US Flag 
03:21PM EDT


 

Airport Tracker/Info


-or-


 

Live Flight TrackerFlight Track Log ✈ ASQ4301 ✈ 15-May-2013 ✈ KIAH - KAEX

Flight Track Log - Related Links

Times and Time Zones

All times are in EDT time to prevent confusion due to time zone crossing. See the ASQ4301 flight status page for this flight to view local times or setup timezone preferences in your user account.

Time Position Orientation Groundspeed Altitude Reporting Facility
EDT Latitude Longitude Course Direction KTS MPH feet Rate Location/Type
10:09PM 30.0006 -95.5633 41° Northeast 170 196 3,000  Level Houston Center
10:10PM 29.9936 -95.5086 98° East 178 205 2,700 -600 Descending Houston Center
10:11PM 29.9931 -95.4619 91° East 171 197 1,900 -840 Descending Houston Center
10:12PM 29.9942 -95.4147 88° East 161 185 1,100 -720 Descending Houston Center
10:13PM 29.9942 -95.3708 90° East 148 170 500 -600 Descending Houston Center
10:15PM 30.4283 -94.9717 41° Northeast  Level FlightAware Approximate
10:16PM 30.1271 -95.0986 32° Northeast  Level Estimated
10:23PM 30.5916 -94.1317 33° Northeast  Level Estimated
10:24PM 30.7182 -94.1905 338° Northwest  Level FlightAware Approximate
10:25PM 30.7733 -94.0453 85° East  Level Estimated
10:26PM 30.8281 -93.8999 90° East  Level Estimated
10:27PM 30.8828 -93.7543 90° East  Level Estimated
10:28PM 30.9374 -93.6086 90° East  Level Estimated
10:29PM 31.0714 -93.6382 349° North  Level FlightAware Approximate
10:30PM 31.1081 -93.4848 83° East  Level Estimated
10:31PM 31.1446 -93.3313 90° East  Level Estimated
10:32PM 31.2216 -93.2156 80° East  Level FlightAware Approximate
10:33PM 31.2334 -93.0572 90° East  Level FlightAware Approximate
10:34PM 31.2334 -92.8977 90° East  Level FlightAware Approximate
10:35PM 31.2454 -92.7389 84° East  Level FlightAware Approximate
10:36PM 31.2500 -92.5796 90° East  Level FlightAware Approximate
10:37PM 31.3129 -92.5314 337° Northwest  Level FlightAware Approximate
10:38PM 31.3167 -92.5333 337° Northwest  Level FlightAware Approximate
10:39PM 31.3274 -92.5486 337° Northwest  Level Estimated
10:40PM 31.3274 -92.5486 337° Northwest  Level Estimated
10:41PM 31.3274 -92.5486 337° Northwest  Level Estimated
10:42PM 31.3274 -92.5486 337° Northwest  Level Estimated
10:43PM 31.3274 -92.5486 337° Northwest  Level Estimated
10:44PM 31.3274 -92.5486 337° Northwest  Level Estimated